Surface observations / UK / EGBB

Quebec | Canada | USA | France | UK | Europe | Elsewhere

Display: Info & Location for EGBB | Help decoding METAR

EGBB BIRMINGHAM AIRPORT -- UK
Raw surface observations for station EGBB
EGBB 302350Z 18007KT 9999 BKN021 16/13 Q1021=
EGBB 302320Z 17004KT 130V210 9999 FEW015 BKN025 15/13 Q1021=
EGBB 302250Z 17006KT 9999 SCT044 15/13 Q1021=
EGBB 302220Z 17007KT CAVOK 16/13 Q1021=
EGBB 302150Z 18005KT 9999 FEW049 16/13 Q1021=
EGBB 302120Z 17006KT CAVOK 16/13 Q1021=
EGBB 302050Z 17006KT CAVOK 16/13 Q1022=
EGBB 302020Z 18005KT 150V220 CAVOK 17/13 Q1022=
EGBB 301950Z 15004KT CAVOK 16/13 Q1022=
EGBB 301920Z 15004KT CAVOK 16/13 Q1022=
EGBB 301850Z 18004KT 140V210 CAVOK 17/13 Q1022=
EGBB 301820Z 18005KT CAVOK 17/12 Q1022=
EGBB 301750Z 19005KT 150V220 CAVOK 18/12 Q1022=
EGBB 301720Z 19005KT CAVOK 18/11 Q1021=
EGBB 301650Z 19006KT 160V220 9999 FEW033 18/11 Q1021=
EGBB 301620Z 18006KT 9999 FEW032 19/12 Q1021=
EGBB 301550Z 18007KT 9999 FEW036 19/12 Q1021=
EGBB 301520Z 20008KT 150V240 9999 SCT032 SCT038 20/11 Q1022=
EGBB 301450Z 21006KT 170V250 9999 FEW031 SCT040 20/12 Q1022=
EGBB 301420Z 19006KT 150V250 9999 FEW027 BKN038 19/12 Q1022=
EGBB 301350Z 20007KT 160V230 9999 SCT028 BKN034 19/12 Q1022=
EGBB 301320Z 21005KT 170V240 9999 FEW028 SCT038 19/12 Q1022=
EGBB 301250Z AUTO 22008KT 170V280 9999 FEW033/// BKN039/// 19/12 Q1022=
EGBB 301220Z AUTO 22006KT 180V250 9999 FEW024/// SCT034/// BKN040/// 18/12 Q1023=
EGBB 301150Z 24006KT 190V270 9999 SCT023 BKN033 18/12 Q1023=
EGBB 301120Z 21006KT 170V270 9999 SCT023 18/12 Q1023=
EGBB 301050Z AUTO 19007KT 170V230 9999 FEW015/// 18/13 Q1023=
EGBB 301020Z AUTO 20005KT 150V250 9999 SCT010/// SCT015/// 17/13 Q1023=
EGBB 300950Z 17006KT 140V200 9999 SCT010 16/13 Q1023=
EGBB 300920Z 19005KT 9000 BKN007 14/13 Q1022=
EGBB 300850Z 19006KT 160V230 8000 SCT007 14/13 Q1022=
EGBB 300820Z VRB03KT 6000 SCT005 BKN006 13/13 Q1022=
EGBB 300750Z 18004KT 3400 BCFG BKN004 13/13 Q1022=
EGBB 300720Z VRB02KT 2000 BCFG VV/// 12/12 Q1022=
EGBB 300650Z VRB02KT 1200 R33/P1500 BCFG NSC 12/12 Q1022=
EGBB 300620Z 18003KT 4000 1000S R33/P1500 BCFG NSC 11/11 Q1021=
EGBB 300550Z 16004KT 2400 BCFG NSC 11/11 Q1021=
EGBB 300520Z 19004KT 160V220 2600 VCFG SCT001 11/11 Q1021=
EGBB 300450Z 18004KT 1200 VCFG NSC 11/11 Q1021=
EGBB 300420Z 20004KT 2300 BR NSC 11/11 Q1021=
EGBB 300350Z 18004KT 3100 0900S VCFG NSC 11/11 Q1021=
EGBB 300320Z VRB03KT 5000 HZ NSC 12/12 Q1021=
EGBB 300250Z 21004KT 7000 NSC 13/12 Q1020=
EGBB 300220Z VRB03KT 7000 NSC 13/12 Q1020=
EGBB 300150Z AUTO 20004KT 170V230 6000 NCD 13/12 Q1020=
EGBB 300120Z AUTO 24004KT 6000 NCD 14/12 Q1020=
EGBB 300050Z AUTO 23004KT 200V270 5000 HZ NCD 14/13 Q1020=
EGBB 300020Z 23004KT 190V270 3400 HZ FEW006 14/13 Q1020=
EGBB 292350Z VRB03KT 3300 HZ FEW047 15/14 Q1020=
EGBB 292320Z 22004KT 2800 HZ FEW007 15/14 Q1020=